8 novembre 2017

Rotax MAX Challenge Grand Finals 2017
4. - 11. November 2017 (Portimao Portugal)

Mondial Karting

Ranking Qualifying Practice 125 Junior MAX:
Platz StNr Name NAT Entrant Entrant-Nat Runden Fast Lap in Lap Differenz Abstand
1 202 Van Der Helm, Tijmen NED Gerard Van Der Helm NED 5 59.918 3
2 240 Van Walstijn, Senna NED JJ Racing NED 5 1:00.013 4 + 0.095 + 0.095
3 203 Foster, Tommy GBR Dan Holland Racing GBR 4 1:00.092 3 + 0.174 + 0.079
4 236 Moriyama, Tosei JPN Eiko Japan JPN 5 1:00.101 4 + 0.183 + 0.009
5 204 Donicz, Kamil POL Uniq Racing POL 5 1:00.115 4 + 0.197 + 0.014
6 210 Feeney, Broc AUS Int. Karting Distributors AUS 5 1:00.158 3 + 0.240 + 0.043
7 206 Preston, Jac AUS Int. Karting Distributors AUS 5 1:00.213 3 + 0.295 + 0.055
8 208 Pope, Jaiden AUS Int. Karting Distributors AUS 5 1:00.251 3 + 0.333 + 0.038
9 272 Leistra, Luca BEL Pedro Leistra BEL 5 1:00.266 4 + 0.348 + 0.015
10 221 Meguetounif, Sami FRA Pierre Meguetounif FRA 4 1:00.276 4 + 0.358 + 0.010
11 232 Saarniala, Axel FIN Kohtala Sports FIN 5 1:00.280 3 + 0.362 + 0.004
12 222 Wood, Ryan NZL Shane Wood NZL 5 1:00.301 3 + 0.383 + 0.021
13 262 Sei, Karl-Markus EST TGT Racing EST 5 1:00.330 3 + 0.412 + 0.029
14 228 Woods-Toth, Patrick CAN SRA Karting International CAN 5 1:00.389 3 + 0.471 + 0.059
15 261 Diaz Rodriguez, Juan Jose COL Claudia Toledo COL 4 1:00.407 4 + 0.489 + 0.018
16 209 Ravenscroft, Clayton GBR KR Sport UK GBR 4 1:00.461 3 + 0.543 + 0.054
17 269 Bataller Camare, Ivan ESP EKR Kart Racing ESP 4 1:00.462 4 + 0.544 + 0.001
18 233 Prouteau, Camille FRA Franck Prouteau FRA 5 1:00.478 4 + 0.560 + 0.016
19 255 Ibrahim, Muhammad IND Praga Asia KRS MAS 4 1:00.479 4 + 0.561 + 0.001
20 256 Otto, Fritzler ARG Edgardo Fritzler ARG 5 1:00.482 5 + 0.564 + 0.003
21 214 Coertze, Joshua RSA Kobie Coertze RSA 5 1:00.489 3 + 0.571 + 0.007
22 238 Hamada, Toranosuke JPN Eiko Japan JPN 5 1:00.559 5 + 0.641 + 0.070
23 239 Van Vugt, Mike NED JJ Racing NED 5 1:00.592 3 + 0.674 + 0.033
24 216 Deukmedjian, Arias USA SRA Karting International CAN 5 1:00.597 3 + 0.679 + 0.005
25 231 Bernier, Victor FRA Fabrice Bernier FRA 5 1:00.598 5 + 0.680 + 0.001
26 230 Mizera, Marek CZE MS Kart Racing Team V ACR CZE 5 1:00.600 5 + 0.682 + 0.002
27 217 Gonzalez, Tyler USA SRA Karting International CAN 4 1:00.614 4 + 0.696 + 0.014
28 227 De Oliveira, Guilherme POR Paulo De Oliveira POR 4 1:00.629 4 + 0.711 + 0.015
29 207 Penov, Hristo BUL Vladimir Penov BUL 4 1:00.631 4 + 0.713 + 0.002
30 211 Pokos, Jan CRO Sportstil SLO 4 1:00.642 4 + 0.724 + 0.011
31 213 Hannus, Jimi FIN Jukka Hannus FIN 4 1:00.655 4 + 0.737 + 0.013
32 219 Vair, Hugo FRA Guignet Jean Philipe FRA 4 1:00.669 3 + 0.751 + 0.014
33 218 Crawford, Jak USA SRA Karting International CAN 5 1:00.680 3 + 0.762 + 0.011
34 220 Boyd, Sebatian RSA Boyd Warren RSA 5 1:00.695 5 + 0.777 + 0.015
35 223 Jerich, Frederick AUT Speedworld Academy AUT 4 1:00.701 4 + 0.783 + 0.006
36 244 Kao, Jie TPE Eiko Taiwan TPE 5 1:00.714 5 + 0.796 + 0.013
37 205 Camara, Rafael BRA Wilton Santos junior PAR 4 1:00.721 4 + 0.803 + 0.007
38 246 Galvanin, Elia ITA Claudio Galvanin ITA 5 1:00.754 4 + 0.836 + 0.033
39 265 Crystal, Liam UAE Al Ain Raceway UAE 4 1:00.783 3 + 0.865 + 0.029
40 234 Riis, Mads DEN Mads RathckeThomsen DEN 5 1:00.797 4 + 0.879 + 0.014
41 263 Duerksen, Joshua PAR Daniel Candia PAR 4 1:00.799 4 + 0.881 + 0.002
42 201 Nagy, Sandor HUN Top-Motorsport Egyesuelet HUN 5 1:00.805 5 + 0.887 + 0.006
43 242 Bernardi, Marco ITA Guerrino Bernardi ITA 7 1:00.810 5 + 0.892 + 0.005
44 245 Leroux, Romain SIN Praga Asia KRS MAS 4 1:00.817 3 + 0.899 + 0.007
45 250 Turiev, Maksim RUS Aviagamma RUS 5 1:00.840 3 + 0.922 + 0.023
46 267 Handsaeme, Xavier BEL Xavier Handsaeme BEL 4 1:00.846 4 + 0.928 + 0.006
47 229 Malecek, Jan CZE MS Kart Racing Team V ACR CZE 4 1:00.848 2 + 0.930 + 0.002
48 248 Arione, Gianni CHI Francisco Portell CHI 5 1:00.856 3 + 0.938 + 0.008
49 235 Leung, Jason CAN SRA Karting International CAN 4 1:00.859 3 + 0.941 + 0.003
50 260 Tangniannatchai, Ananthorn THA Praga Asia KRS MAS 5 1:00.880 3 + 0.962 + 0.021
51 249 Leon, Noel MEX Noel Leon MEX 5 1:00.946 4 + 1.028 + 0.066
52 243 Makushin, Matvei LAT Team Victoria LAT 5 1:00.948 3 + 1.030 + 0.002
53 241 Krasko, Heorhii UKR Kartprom UKR 4 1:00.983 3 + 1.065 + 0.035
54 215 Greenemeier, Hannah USA SRA Karting International CAN 5 1:01.018 4 + 1.100 + 0.035
55 257 Wisnicki, Piotr POL Wyrzykowski Motorsport POL 4 1:01.038 4 + 1.120 + 0.020
56 270 Komninos, Konstantinos GRE Speed Force GRE 5 1:01.044 3 + 1.126 + 0.006
57 264 Robinson, Lachlan UAE Al Ain Raceway UAE 5 1:01.065 5 + 1.147 + 0.021
58 271 Barzallo, Matias ECU Claudia Toledo COL 4 1:01.078 4 + 1.160 + 0.013
59 258 Doerr, Ben GER CRG Performance GER 5 1:01.111 2 + 1.193 + 0.033
60 212 Yammine, Charbel LIB Azimut Automotive LIB 5 1:01.177 3 + 1.259 + 0.066
61 237 Morin, Hannes SWE Hannes Morin SWE 4 1:01.186 4 + 1.268 + 0.009
62 251 Bykonya, Fedor RUS Aviagamma RUS 4 1:01.223 3 + 1.305 + 0.037
63 259 Aradhya, Yash IND Sujith Aradhya IND 5 1:01.226 3 + 1.308 + 0.003
64 247 Schober, Patrick SVK Kf Racing Team SVK 5 1:01.291 5 + 1.373 + 0.065
65 225 Sjogren, Simon SWE West Speed Racing SWE 4 1:01.312 4 + 1.394 + 0.021
66 254 Shin, Woojin KOR TRK Promotion KOR 5 1:01.373 5 + 1.455 + 0.061
67 253 Martinez, Mariano MEX Mariano Martinez MEX 5 1:01.497 4 + 1.579 + 0.124
68 266 Tlemsani, Malik ALG Nrdi ALG 5 1:01.522 5 + 1.604 + 0.025
69 252 Rivas, Gaston URU Gerardo Rivas URU 5 1:01.536 5 + 1.618 + 0.014
70 224 Sidler, Mario SUI Kart-Club Oerlikon SUI 5 1:01.579 3 + 1.661 + 0.043
71 268 Shameli, Mehrbod IRI Alireza Sabbagh IRI 3 1:02.062 3 + 2.144 + 0.483
72 226 Salmaan, Hussein EGY Mohamed Saad EGY 5 1:02.152 5 + 2.234 + 0.090

Ranking Qualifying Practice 125 MAX:
Platz StNr Name NAT Entrant Entrant-Nat Runden Fast Lap in Lap Differenz Abstand
1 315 Brown-Nutley, Jordan GBR Dan Holland Racing GBR 6 59.787 4
2 333 Macdermid, Ryan CAN SRA Karting International CAN 6 59.793 4 + 0.006 + 0.006
3 357 Bergmeier, Tamino GER JJ Racing NED 6 59.963 4 + 0.176 + 0.170
4 349 Portell, Diego CHI Francisco Portell CHI 6 1:00.001 5 + 0.214 + 0.038
5 305 Leppa, Lauri FIN Heikki Vaeisaenen FIN 6 1:00.015 4 + 0.228 + 0.014
6 336 Bezel, Petr CZE Bezel Petr CZE 5 1:00.049 3 + 0.262 + 0.034
7 361 Veerus, Ragnar EST TGT Racing EST 6 1:00.073 5 + 0.286 + 0.024
8 370 Bordas Cotes, Enric ESP Kids To Win C.E. ESP 5 1:00.082 5 + 0.295 + 0.009
9 359 Nistri, Lorenzo ITA Nistri Lorenzo ITA 7 1:00.098 4 + 0.311 + 0.016
10 323 Ward, Brett GBR 3G Racing GER 6 1:00.107 4 + 0.320 + 0.009
11 313 Cranston, Jacob NZL Cranston Andrew NZL 7 1:00.111 4 + 0.324 + 0.004
12 327 Schwitter, Jan SUI Speed Racing Gmbh SUI 6 1:00.143 4 + 0.356 + 0.032
13 352 Hunter, Rhys GBR KR Sport UK GBR 5 1:00.158 5 + 0.371 + 0.015
14 365 Warge, Felix BEL Warge Felix BEL 5 1:00.158 4 + 0.371 -
15 355 Rehme, David SWE Dan Holland Racing GBR 6 1:00.166 4 + 0.379 + 0.008
16 302 Kovacs, Zsombor HUN KMS Europe HUN 5 1:00.189 3 + 0.402 + 0.023
17 364 Cravero, Alejo ARG Juan Manuel Guara ARG 5 1:00.193 5 + 0.406 + 0.004
18 306 Longmore, Cameron AUS Int. Karting Distributors AUS 5 1:00.193 5 + 0.406 -
19 338 Signoretti, Marco CAN SRA Karting International CAN 5 1:00.198 5 + 0.411 + 0.005
20 325 Barrett, Bradley GBR Dan Holland Racing GBR 6 1:00.200 4 + 0.413 + 0.002
21 371 Boroumand, Bardia IRI Alireza Sabbagh IRI 6 1:00.219 5 + 0.432 + 0.019
22 307 Kaprzyk, Mateusz POL JR Racing POL 6 1:00.233 4 + 0.446 + 0.014
23 345 Amati, Giorgio ITA Biagio Amati ITA 7 1:00.244 3 + 0.457 + 0.011
24 340 Novak, Mario AUT KSB Racing Team AUT 5 1:00.255 3 + 0.468 + 0.011
25 334 Ritter, Kellen CAN SRA Karting International CAN 5 1:00.267 5 + 0.480 + 0.012
26 353 Coutinho, Goncalo POR Rui Coutinho POR 6 1:00.271 3 + 0.484 + 0.004
27 362 Turner, Charlie GBR Turner Charlie GBR 5 1:00.272 3 + 0.485 + 0.001
28 343 Dominguez, Diego PAR Emilio Silva PAR 6 1:00.273 4 + 0.486 + 0.001
29 347 Zviedris, Valters LAT Jurmala Papas Rt LAT 6 1:00.290 4 + 0.503 + 0.017
30 318 Kverkild, Ruben NOR Team Pro-Karting NOR 5 1:00.296 3 + 0.509 + 0.006
31 341 Andreasen, Lasse DEN Andreasen Carsten DEN 6 1:00.300 3 + 0.513 + 0.004
32 332 Selliken, Lucas USA SRA Karting International CAN 5 1:00.312 3 + 0.525 + 0.012
33 319 Wang, Enqi CHN KRS Motorsports MAS 7 1:00.338 3 + 0.551 + 0.026
34 314 Jenner, Bradley AUS Int. Karting Distributors AUS 6 1:00.345 5 + 0.558 + 0.007
35 363 Kortelainen, Rasmus FIN Kortelainen Jani FIN 6 1:00.352 6 + 0.565 + 0.007
36 317 Ioannou, Nikolaos GRE Kartworks GRE 6 1:00.355 4 + 0.568 + 0.003
37 324 Nomblot, Jean FRA Marc Nomblot FRA 5 1:00.404 3 + 0.617 + 0.049
38 311 Dovjak, Anze SLO Sportstil SLO 6 1:00.414 3 + 0.627 + 0.010
39 372 Andersen, Charlie SWE KR Sport GBR 5 1:00.416 5 + 0.629 + 0.002
40 335 Belhocine, Sebastien CZE Strnadel Motorsport CZE 6 1:00.429 4 + 0.642 + 0.013
41 348 Matsuzawa, Ryosuke JPN Eiko Japan JPN 5 1:00.431 5 + 0.644 + 0.002
42 309 Gregula, Jakub POL JR Racing POL 6 1:00.450 3 + 0.663 + 0.019
43 312 Brewczynski, Cody AUS Int. Karting Distributors AUS 6 1:00.455 6 + 0.668 + 0.005
44 346 Mizuno, Koki JPN Eiko Japan JPN 5 1:00.462 4 + 0.675 + 0.007
45 321 Herring, Luke RSA Herring Luke RSA 7 1:00.463 7 + 0.676 + 0.001
46 358 De Bock, Jules NED Jerica Beurskens NED 5 1:00.491 5 + 0.704 + 0.028
47 367 Al Saei, Khalid BRN Al Ain Raceway UAE 7 1:00.501 4 + 0.714 + 0.010
48 301 Ramos, Benjamin CHI Cesar Ramos Abukhalil COL 7 1:00.518 5 + 0.731 + 0.017
49 303 Johnson, James GBR Dan Holland Racing GBR 6 1:00.526 1 + 0.739 + 0.008
50 339 Cusson, Logan CAN SRA Karting International CAN 6 1:00.541 3 + 0.754 + 0.015
51 337 Kamenok, Artsemi BLR Aviagamma RUS 6 1:00.559 4 + 0.772 + 0.018
52 308 Rizk, Carl LIB Azimut Automotive LIB 5 1:00.565 3 + 0.778 + 0.006
53 351 Chernyshov, Denys UKR Kartprom Team UKR 6 1:00.595 5 + 0.808 + 0.030
54 331 Mallozzi, Stephen USA SRA Karting International CAN 6 1:00.598 6 + 0.811 + 0.003
55 366 Pilo, Juan Pablo ARG Encina Raolo Fabian ARG 5 1:00.651 5 + 0.864 + 0.053
56 356 Lee, Chanjoon KOR TRK Promotion KOR 5 1:00.733 5 + 0.946 + 0.082
57 342 Travnikov, Sergei RUS Aviagamma RUS 5 1:00.738 3 + 0.951 + 0.005
58 344 Taborsky, Pavol SVK Ert Racing Team SVK 5 1:00.745 5 + 0.958 + 0.007
59 326 Fridell, Rasmus SWE Radne Motor Ab SWE 6 1:00.753 6 + 0.966 + 0.008
60 368 Al Qubaisi, Amna UAE Al Ain Raceway UAE 5 1:00.786 5 + 0.999 + 0.033
61 369 Salhi, Sofiane ALG Nrdi ALG 7 1:00.834 6 + 1.047 + 0.048
62 316 Sarrazin, Arnaud FRA Sarrazin Arnaud FRA 5 1:00.911 3 + 1.124 + 0.077
63 320 Jensen, Victor Conrad THA KRS Motorsports MAS 5 1:00.935 5 + 1.148 + 0.024
64 360 Vava, Filip ESP Dobrila Vava Atanackovic ESP 1 1:00.958 1 + 1.171 + 0.023
65 354 Rakamulya, Rifqi INA Praga Asia KRS MAS 5 1:00.959 5 + 1.172 + 0.001
66 330 Dupell, Kyle USA SRA Karting International CAN 5 1:00.980 2 + 1.193 + 0.021
67 304 Peixoto, Guilherme BRA Wilton Santos junior RAR 5 1:01.171 1 + 1.384 + 0.191
68 328 Loyer, Patrick PER Claudia Toledo COL 5 1:01.202 4 + 1.415 + 0.031
69 322 Bourdon, Matthieu FRA Claude Bourdon FRA 6 1:01.485 4 + 1.698 + 0.283
70 350 Sanchez, Victor MEX Sanchez Victor MEX 5 1:01.510 5 + 1.723 + 0.025
71 310 Viktor, Stefan ROU Road Runner Racing Team ROU 6 1:01.515 6 + 1.728 + 0.005
72 329 Samy, Ahmed EGY Mohamed Saad EGY 6 1:02.425 2 + 2.638 + 0.910

Qualifying Practice 125 Mini MAX (R2):
Platz StNr Name NAT Entrant Entrant-Nat Runden Fast Lap in Lap Differenz Abstand
1 107 Wharton, James AUS Int. Karting Distributors AUS 6 1:04.720 6
2 108 Pierson, Josh USA SRA Karting International CAN 6 1:04.939 6 + 0.219 + 0.219
3 132 Day, Jamie UAE Al Ain Raceway UAE 6 1:04.942 5 + 0.222 + 0.003
4 114 Sokolov, Iakov RUS Aviagamma RUS 6 1:04.969 3 + 0.249 + 0.027
5 115 Arseneau, Justin CAN SRA Karting International CAN 6 1:04.976 5 + 0.256 + 0.007
6 111 Amand, Marcus FRA Marc Amand FRA 6 1:05.012 5 + 0.292 + 0.036
7 128 Fourie, Leyton Daniel RSA KMS Europe RSA 6 1:05.129 3 + 0.409 + 0.117
8 102 Valint, Bence HUN Hargitai Racing HUN 6 1:05.160 6 + 0.440 + 0.031
9 136 Aguilera Lopez, Marco ESP Norma Racing POR 6 1:05.161 4 + 0.441 + 0.001
10 135 Alanis, Eric ESP Kids To Win C .E ESP 6 1:05.168 6 + 0.448 + 0.007
11 103 De Haan, Robert NED GCW De Haan NED 6 1:05.169 4 + 0.449 + 0.001
12 110 Tanic, Craig FRA Harry Tanic FRA 6 1:05.218 5 + 0.498 + 0.049
13 133 Kekati, Theo UAE Al Ain Raceway UAE 6 1:05.244 6 + 0.524 + 0.026
14 101 Tarillion, Maximilian AUT Speedworld Academy AUT 6 1:05.256 6 + 0.536 + 0.012
15 104 Kret, Karol POL K-Dyno Kart POL 6 1:05.306 4 + 0.586 + 0.050
16 106 Abi Nakhle, Sami-Joe LIB Azimut Automotive LIB 6 1:05.330 5 + 0.610 + 0.024
17 120 Tkachev, Ivan LTU AGS Racing Team EST 6 1:05.338 5 + 0.618 + 0.008
18 130 Tessaro, Vinicius BRA Wilton Santos junior PAR 6 1:05.362 4 + 0.642 + 0.024
19 121 Bertocco, Gregorio ITA Bertocco Gregorio ITA 6 1:05.408 6 + 0.688 + 0.046
20 134 Rillaerts, Kai BEL Rillaerts Aite BEL 6 1:05.453 5 + 0.733 + 0.045
21 126 Stolcermanis, Tomass LAT 333 Autosport LAT 6 1:05.459 6 + 0.739 + 0.006
22 105 Valint, Balazs HUN Hargitai Racing HUN 6 1:05.535 5 + 0.815 + 0.076
23 127 Hensen, Linus GER Kartschmie.De GER 7 1:05.670 4 + 0.950 + 0.135
24 125 Lu, Hebiete Nathan CHN Praga Asia KRS MAS 6 1:05.691 6 + 0.971 + 0.021
25 122 Ramirez Pino, Ramon CHI Ramon Ramirez Soto CHI 6 1:05.819 2 + 1.099 + 0.128
26 118 Vendelbo, Rasmus DEN Lars Vendelbo DEN 6 1:05.844 6 + 1.124 + 0.025
27 109 Fox, Aidan USA SRA Karting International USA 6 1:05.853 4 + 1.133 + 0.009
28 131 Bohdanowicz, Lucas ARG Bohdanowicz Hugo ARG 6 1:05.859 6 + 1.139 + 0.006
29 123 Kim, Hwarang KOR TRK Promotion KOR 5 1:05.865 3 + 1.145 + 0.006
30 112 Blomqvist, Joona FIN Blomqvist Joona FIN 6 1:06.146 6 + 1.426 + 0.281
31 129 Brion, Andres ARG Bohdanowicz Hugo Ruben ARG 6 1:06.209 5 + 1.489 + 0.063
32 116 Ardila Romero, Juan Esteban COL Claudia Toledo COL 6 1:06.211 6 + 1.491 + 0.002
33 124 Lopez, Eloy MEX Jose Lopez MEX 6 1:06.297 4 + 1.577 + 0.086
34 119 Kukuruzov, Daniil UKR Kartprom UKR 6 1:06.355 6 + 1.635 + 0.058
35 117 Yamashita, Daisuke JPN Eiko Japan JPN 7 1:06.402 6 + 1.682 + 0.047
36 113 Clavadetscher, Sacha SUI Speed Racing SUI 6 1:06.668 6 + 1.948 + 0.266

Qualifying Practice 125 Micro MAX (R1):
Platz StNr Name NAT Entrant Entrant-Nat Runden Fast Lap in Lap Differenz Abstand
1 10 Van Ruiten, Dani NED Chris Van Ruiten NED 6 1:08.795 6
2 9 Zelenko, Leon CRO Sportstil SLO 6 1:08.795 6 - -
3 19 Malheiro, Adrian POR Olga Sune Recio POR 6 1:08.820 3 + 0.025 + 0.025
4 14 Nael, Theophile FRA Laurent Nael FRA 6 1:08.870 6 + 0.075 + 0.050
5 20 Horachi, Ryota JPN Eiko Japan JPN 6 1:08.951 6 + 0.156 + 0.081
6 35 Al Azhari, Keanu UAE Al Ain Raceway UAE 6 1:08.993 5 + 0.198 + 0.042
7 4 Madden, Jonathan POL Wyrzykowski Motorsport POL 6 1:09.091 5 + 0.296 + 0.098
8 11 Jeffers, Jack USA SRA Karting International CAN 6 1:09.107 6 + 0.312 + 0.016
9 3 Crews, Brent USA SRA Karting International CAN 6 1:09.137 5 + 0.342 + 0.030
10 13 Iglesias, Louis FRA Iglesias Yannick FRA 6 1:09.209 6 + 0.414 + 0.072
11 24 Bondarev, Oleksandr UKR Kartprom UKR 6 1:09.223 6 + 0.428 + 0.014
12 15 Oliveira, Joao POR Nelson Oliveira POR 6 1:09.226 6 + 0.431 + 0.003
13 6 Gladysz, Maciej POL Gladysz Karting Team POL 6 1:09.270 6 + 0.475 + 0.044
14 32 Alva, Ruhaan IND Birel Art India IND 6 1:09.270 6 + 0.475 -
15 28 Nazrul Haizal, Adam Mikail MAS Praga Asia KRS MAS 6 1:09.275 6 + 0.480 + 0.005
16 36 Dedecker, Douwe BEL Dominique Dedecker BEL 6 1:09.284 6 + 0.489 + 0.009
17 7 Jalava, Aleksi FIN Jalava Mikko FIN 6 1:09.420 6 + 0.625 + 0.136
18 8 Khneisser, Edwin LIB Azimut Automotive LIB 6 1:09.424 5 + 0.629 + 0.004
19 22 Koros, Zoltan SVK Kf Racing Team SVK 6 1:09.432 4 + 0.637 + 0.008
20 27 Khavalkin, Anatoly RUS Aviagamma RUS 6 1:09.446 6 + 0.651 + 0.014
21 23 Ambiado, Nicolas CHI Marco Ambiado CHI 6 1:09.566 6 + 0.771 + 0.120
22 5 Bassani, Antonella BRA Wilton Santos Junior PAR 6 1:09.599 6 + 0.804 + 0.033
23 1 Obst, Maksymilian POL Bambini Racing POL 6 1:09.609 3 + 0.814 + 0.010
24 33 Bernasconi, Felipe ARG Jose Maria Bernasconi ARG 6 1:09.716 6 + 0.921 + 0.107
25 30 Schmeiss, Moritz GER Beule-Kart Racing Team GER 6 1:09.745 5 + 0.950 + 0.029
26 25 Fujii, Shota JPN Eiko Japan JPN 6 1:09.806 6 + 1.011 + 0.061
27 29 Arnett, Harry AUS Int. Karting Distributors AUS 6 1:09.810 6 + 1.015 + 0.004
28 31 Janovskis, Martins LAT MRG Racing LAT 6 1:09.853 5 + 1.058 + 0.043
29 21 Kostyna, Rostyslav UKR Kartprom UKR 6 1:09.855 5 + 1.060 + 0.002
30 34 Borgert, Manuel ARG Edgardo Fritzler ARG 6 1:09.928 5 + 1.133 + 0.073
31 17 Wally, Muhammad RSA Wally Muhammad RSA 6 1:10.289 4 + 1.494 + 0.361
32 16 Paniccia, Marcello CAN SRA Karting International CAN 6 1:10.398 2 + 1.603 + 0.109
33 18 Pedersen, Mikkel Gaarde DEN Pedersen Tom Gaarde DEN 6 1:10.901 4 + 2.106 + 0.503
34 26 Kim, Junho KOR TRK Promotion KOR 5 1:13.455 1 + 4.660 + 2.554
35 12 Lykos, Nikolaos GRE Lazarakos Giorgos GRE 6 1:13.574 2 + 4.779 + 0.119
36 2 Krozser, Menyhert HUN Mhh Kart Team HUN

Ranking Qualifying Practice 125 MAX DD2:
Platz StNr Name NAT Entrant Entrant-Nat Runden Fast Lap in Lap Differenz Abstand
1 458 Stien, Nikolai NOR Team Pro-Karting NOR 7 58.485 6
2 455 Thomsen, Mads DEN Thomsen Mads R. DEN 6 58.624 6 + 0.139 + 0.139
3 402 Gillis, Cody AUS Int. Karting Distributors AUS 7 58.641 6 + 0.156 + 0.017
4 425 Viiliaeinen, Ville FIN Heikki Vaeisaenen FIN 7 58.677 5 + 0.192 + 0.036
5 446 Bielecki, Kacper POL Inter Cars Karting Team POL 7 58.679 7 + 0.194 + 0.002
6 467 Henckel Mortens, Martin GER Team VPDR Racing DEN 6 58.702 4 + 0.217 + 0.023
7 423 Bruegger, Nico SUI Speed Racing Gmbh SUI 6 58.710 5 + 0.225 + 0.008
8 448 Dueholm, Marc DEN Finn Kroun DEN 6 58.726 5 + 0.241 + 0.016
9 404 De Ruwe, Xen SLO Sportstil SLO 7 58.730 7 + 0.245 + 0.004
10 418 Schoell, Constantin AUT Daems Racing Team BEL 7 58.743 5 + 0.258 + 0.013
11 406 Birizdo, Imre HUN KMS Europe HUN 7 58.746 7 + 0.261 + 0.003
12 414 Njeim, Matthias LIB Azimut Automotive LIB 6 58.753 5 + 0.268 + 0.007
13 465 Sorensen, Christian DEN Christian Sorensen DEN 7 58.780 7 + 0.295 + 0.027
14 456 Fleischmann, Max GER VPDR AUT 7 58.781 6 + 0.296 + 0.001
15 440 Durante, Cosimo Francesc ITA Cosimo Francesco Durante ITA 7 58.796 7 + 0.311 + 0.015
16 443 Pagliarani, Claudio ITA Pagliarani Claudio ITA 6 58.800 5 + 0.315 + 0.004
17 468 Cebrian Ariza, Gerard ESP Motor Club Creixell ESP 7 58.802 7 + 0.317 + 0.002
18 435 Claman-Demelo, Zachary CAN SRA Karting International CAN 6 58.804 5 + 0.319 + 0.002
19 464 Kancsar, Ferenc HUN Kancsar Racing HUN 7 58.812 5 + 0.327 + 0.008
20 437 Pinto, Pedro POR Pinto Pedro POR 6 58.814 6 + 0.329 + 0.002
21 460 De Bonis, Ramiro ARG Jorge De Bonis ARG 7 58.826 7 + 0.341 + 0.012
22 431 Bezel, Jakub CZE Bezel Petr CZE 6 58.839 5 + 0.354 + 0.013
23 403 Slosar, Jan SLO Sportstil SLO 7 58.868 6 + 0.383 + 0.029
24 412 Liebenberg, Bradley RSA KMS Europe HUN 6 58.869 4 + 0.384 + 0.001
25 405 Alders, Joey NED Alders Joey NED 7 58.870 5 + 0.385 + 0.001
26 408 Belizario, Ruan BRA Wilton Santos junior PAR 7 58.871 5 + 0.386 + 0.001
27 411 Sinclair, Christopher NZL Sinclair Christopher NZL 7 58.881 5 + 0.396 + 0.010
28 441 Steinerts, Martins LAT Martins Steinerts LAT 6 58.884 6 + 0.399 + 0.003
29 466 Pullinger, Barrie GBR Dan Holland Racing GBR 7 58.894 6 + 0.409 + 0.010
30 442 Iannaccone, Armando ITA Iannaccone Armando ITA 7 58.894 7 + 0.409 -
31 462 Al Rawahi, Abdullah OMA Al Ain Raceway UAE 6 58.897 5 + 0.412 + 0.003
32 469 Borlido, Bruno POR Bruno Borlido POR 6 58.903 6 + 0.418 + 0.006
33 421 Carigiet, Pascal SUI Kart-Club Oerlikon SUI 7 58.919 6 + 0.434 + 0.016
34 401 Dalmau, Oriol ESP Mdc Racing ESP 7 58.926 5 + 0.441 + 0.007
35 450 Larroquette, Pablo CHI Francisco Portell Veliz CHI 7 58.935 6 + 0.450 + 0.009
36 457 Pires, Mariano POR Cabo Do Mundo Sportsyou POR 7 58.941 5 + 0.456 + 0.006
37 410 Fife, Joshua AUS Int. Karting Distributors AUS 7 58.941 7 + 0.456 -
38 434 Kashak, Tyler CAN SRA Karting International CAN 7 58.944 6 + 0.459 + 0.003
39 447 Hardja, Prassetyo INA Praga Asia KRS MAS 7 58.948 5 + 0.463 + 0.004
40 463 Petersson, Lucas UAE Al Ain Raceway UAE 7 58.955 6 + 0.470 + 0.007
41 461 Robinson, Jakob UAE Al Ain Raceway UAE 7 58.960 5 + 0.475 + 0.005
42 419 Kalesis, Filippos GRE PRT Motorsport GRE 7 58.977 6 + 0.492 + 0.017
43 438 Joly, Lucas FRA Joly Lucas FRA 3 58.977 3 + 0.492 -
44 453 Szabo, Nikolas SVK KMS Europe HUN 6 58.989 5 + 0.504 + 0.012
45 427 Alzate, Juan Diego COL Claudia Toledo COL 7 58.990 7 + 0.505 + 0.001
46 424 Jurmanowicz, Karol POL Wyrzykowski Motorsport POL 7 58.998 7 + 0.513 + 0.008
47 407 Alzate, Jose Manuel COL Claudia Toledo COL 7 59.021 5 + 0.536 + 0.023
48 420 Coetzee, Jason RSA John Coetzee RSA 7 59.050 7 + 0.565 + 0.029
49 416 Kennedy, Ryan AUS Int. Karting Distributors AUS 7 59.056 7 + 0.571 + 0.006
50 432 Greco, Davide CAN SRA Karting International CAN 7 59.101 7 + 0.616 + 0.045
51 470 Villacis, Juan Diego ECU Luis Felipe Davila ECU 7 59.108 5 + 0.623 + 0.007
52 433 Simioni, Ethan CAN SRA Karting International CAN 7 59.119 5 + 0.634 + 0.011
53 430 Habig, Benjamin RSA KMS Europe HUN 7 59.136 5 + 0.651 + 0.017
54 471 Van Parijs, Glenn BEL Glenn van Parijs BEL 4 59.214 3 + 0.729 + 0.078
55 472 Toikka, Toni FIN Heikki Vaeisaenen FIN 7 59.222 6 + 0.737 + 0.008
56 413 Presern, Klemen SLO Sportstil SLO 7 59.225 6 + 0.740 + 0.003
57 444 Budovskis, Mihails LAT Aleksandrs Budovskis LAT 7 59.241 6 + 0.756 + 0.016
58 422 Buxeda, Jono NZL Buxeda Jono NZL 7 59.258 6 + 0.773 + 0.017
59 436 Williamson, Andrew FRA Alistair Williamson FRA 7 59.276 6 + 0.791 + 0.018
60 409 Cattucci, Alberto BRA Wilton Santos junior PAR 6 59.313 4 + 0.828 + 0.037
61 426 Aaltonen, Joel FIN Heikki Vaeisaenen FIN 3 59.323 3 + 0.838 + 0.010
62 459 Povilaitis, Marius LTU AGS Racing Team EST 7 59.330 5 + 0.845 + 0.007
63 452 Herrera, Alejandro MEX Elejandro Herrera MEX 7 59.331 5 + 0.846 + 0.001
64 454 Tanioka, Riki JPN Praga Asia KRS MAS 7 59.397 7 + 0.912 + 0.066
65 449 Villanueva, Matias CHI Francisco Portell CHI 7 59.430 6 + 0.945 + 0.033
66 439 Ryasnov, Semen RUS Aviagamma RUS 7 59.482 6 + 0.997 + 0.052
67 429 Cantin, Natael CAN SRA Karting International CAN 6 59.529 6 + 1.044 + 0.047
68 417 Mccarthy, Michael USA SRA Karting International CAN 7 59.581 5 + 1.096 + 0.052
69 428 Mauel, Nathan USA SRA Karting International CAN 7 59.615 5 + 1.130 + 0.034
70 415 Opran, Ioan-Aldrin ROU Jms Performance ROU 6 59.823 6 + 1.338 + 0.208
71 445 Liao, Yang TPE Eiko Taiwan TPE 7 59.889 7 + 1.404 + 0.066
72 451 Gonzalez Alcant, Javier MEX Gonzalez Alcantara Javier MEX 7 59.928 5 + 1.443 + 0.039

Ranking Qualifying Practice 125 MAX DD2 Masters:
Platz StNr Name NAT Entrant Entrant-Nat Runden Fast Lap in Lap Differenz Abstand
1 525 Wang, Derek USA SRA Karting International CAN 7 59.202 5
2 559 Kawase, Tomokazu JPN Eiko Japan JPN 5 59.221 5 + 0.019 + 0.019
3 565 Helfinger, Tommy GER Praga Offical Racing Team GER 7 59.221 6 + 0.019 -
4 530 Zughella, Gabriel ARG Zughella Gabriel ARG 7 59.230 6 + 0.028 + 0.009
5 506 Woolston, Troy AUS Int. Karting Distributors AUS 7 59.237 4 + 0.035 + 0.007
6 517 Ollikainen, Antti FIN Jussi Malila FIN 5 59.247 4 + 0.045 + 0.010
7 535 Stephen, Michael RSA Stephen Michael RSA 7 59.280 7 + 0.078 + 0.033
8 521 Hipp, Charly FRA Langlois Mathieu FRA 7 59.309 6 + 0.107 + 0.029
9 533 Matelic, Primoz SLO AKK Sportstil SLO 6 59.331 6 + 0.129 + 0.022
10 542 Pieterse, Jonathan RSA Pieterse Jonathan RSA 7 59.334 7 + 0.132 + 0.003
11 502 Adams, Christophe BEL Christophe Adams BEL 7 59.349 7 + 0.147 + 0.015
12 538 Muranski, Slawomir POL Wyrzykowski Motorsport POL 7 59.349 7 + 0.147 -
13 532 Tenschert, Manuel AUT KMS Europe HUN 7 59.354 5 + 0.152 + 0.005
14 510 Howard, Scott AUS Int. Karting Distributors AUS 7 59.369 6 + 0.167 + 0.015
15 519 Glauser, Alessandro SUI Kartteam Meier SUI 6 59.395 6 + 0.193 + 0.026
16 536 Mukhin, Igor RUS Aviagamma RUS 7 59.406 7 + 0.204 + 0.011
17 537 Dauphin, Mickael FRA Dauphin Mickael FRA 6 59.407 5 + 0.205 + 0.001
18 504 Guzzi, Fernando BRA Guzzi Fernando BRA 7 59.437 7 + 0.235 + 0.030
19 554 Medina, Carlos MEX Medina Carlos MEX 7 59.442 6 + 0.240 + 0.005
20 501 Chittenden, Tiffany NZL Chittenden Tiffany NZL 7 59.445 6 + 0.243 + 0.003
21 516 Urban, Ryan NZL Urban Ryan NZL 7 59.452 4 + 0.250 + 0.007
22 515 Zervos, Dimitris GRE Kartworks GRE 7 59.481 6 + 0.279 + 0.029
23 564 Sei, Priit EST AGS Racing Team EST 7 59.484 6 + 0.282 + 0.003
24 551 Torres, Horacio CHI Horacio Torres CHI 7 59.492 5 + 0.290 + 0.008
25 508 Aboissa, Michel BRA Aboissa Michel BRA 7 59.493 7 + 0.291 + 0.001
26 512 Walton, Kris AUS Int. Karting Distributors AUS 7 59.512 5 + 0.310 + 0.019
27 514 Pesevski, Robert AUT Ksca Sodi Austria Team AUT 7 59.556 6 + 0.354 + 0.044
28 540 Ferdin, Tomasz POL Wyrzykowski Motorsport POL 7 59.558 4 + 0.356 + 0.002
29 571 Perez Santander, Jesus ESP Real Automovil Club ESP 6 59.559 6 + 0.357 + 0.001
30 503 Rico Muller, Juan Pablo COL Claudia Toledo COL 7 59.582 6 + 0.380 + 0.023
31 567 Mendes, Vitor Manuel POR Vitor Manuel de Freitas Mendes POR 5 59.582 4 + 0.380 -
32 553 Eckholt, Rodrigo CHI Francisco Portell Veliz CHI 7 59.602 5 + 0.400 + 0.020
33 552 Valenzuela, Luis Ignacio CHI Marco Ambiado Olivare CHI 7 59.643 7 + 0.441 + 0.041
34 528 Crupi, Joe CAN SRA Karting International CAN 7 59.668 7 + 0.466 + 0.025
35 546 Tosi, Alessandro ITA Tosi Alessandro ITA 7 59.686 4 + 0.484 + 0.018
36 520 Koivisto, Jari FIN Koivisto Jari FIN 7 59.687 7 + 0.485 + 0.001
37 518 Castro, Ariel USA SRA Karting International CAN 7 59.712 6 + 0.510 + 0.025
38 531 Weinstock, Patrick GER Team VPDR VPD Racing AUT 7 59.740 7 + 0.538 + 0.028
39 570 Blockley, Kyle UAE Al Ain Raceway UAE 7 59.751 7 + 0.549 + 0.011
40 534 Thomas, Chris GBR Chris Thomas GBR 7 59.796 7 + 0.594 + 0.045
41 566 Amboade, Gaston ARG Amboade Gaston ARG 7 59.822 5 + 0.620 + 0.026
42 550 Davila, Rafael PER Claudia Toledo COL 7 59.834 5 + 0.632 + 0.012
43 563 Aloskins, Ilja LAT Team Victoria LAT 7 59.845 6 + 0.643 + 0.011
44 548 Baerensen, Michael DEN Lindbaek Baerensen Michael DEN 7 59.848 7 + 0.646 + 0.003
45 505 Trita, Alexandre BRA Trita Alexandre BRA 7 59.856 6 + 0.654 + 0.008
46 545 Sato, Yuji JPN Eiko Japan JPN 7 59.874 5 + 0.672 + 0.018
47 562 Lima, Antonia POR Antonia Lima POR 7 59.920 7 + 0.718 + 0.046
48 529 Duque Merino, Juan Camilo COL Claudia Toledo COL 7 1:00.004 5 + 0.802 + 0.084
49 547 Rago, Gregorio ITA Gregorio Rago ITA 7 1:00.019 7 + 0.817 + 0.015
50 509 Wernsen, Frits NED Wernsen Frits NED 7 1:00.033 6 + 0.831 + 0.014
51 568 Hogg, Anthony UAE Al Ain Raceway UAE 7 1:00.034 5 + 0.832 + 0.001
52 507 Azana, Roberto Pasqual BRA Azana Roberto Pasqualini BRA 7 1:00.045 4 + 0.843 + 0.011
53 544 Santos Jr, Wilton BRA Santos Jr Wilton PAR 7 1:00.046 7 + 0.844 + 0.001
54 557 Andreasen, Jan DEN Kevin Thygesen DEN 7 1:00.085 6 + 0.883 + 0.039
55 522 Malm, Stefan SWE Ward Racing SWE 7 1:00.092 7 + 0.890 + 0.007
56 541 Sugiyama, Kengo JPN Eiko Japan JPN 7 1:00.136 7 + 0.934 + 0.044
57 558 Simonetto, Esteban ARG Simonetto Esteban ARG 7 1:00.202 3 + 1.000 + 0.066
58 523 Sigurdh, Patrik SWE Ward Racing SWE 7 1:00.407 7 + 1.205 + 0.205
59 511 Malcolm, David NZL Malcolm David NZL 7 1:00.416 4 + 1.214 + 0.009
60 527 Roberts, Scott USA SRA Karting International CAN 7 1:00.438 6 + 1.236 + 0.022
61 569 Day, Kevin UAE Al Ain Raceway UAE 7 1:00.448 7 + 1.246 + 0.010
62 539 Vitols, Gatis LAT Martins Steinerts LAT 6 1:00.488 6 + 1.286 + 0.040
63 549 Lin, Carter TPE Eiko Taiwan TPE 6 1:00.573 5 + 1.371 + 0.085
64 526 Cleavelin, William USA SRA Karting International CAN 7 1:00.613 7 + 1.411 + 0.040
65 560 Khai Loon, Saw MAS Praga Asia KRS MAS 7 1:00.828 3 + 1.626 + 0.215
66 513 Hyvarinen, Petteri FIN Hyvaerinen Petteri FIN 6 1:00.844 5 + 1.642 + 0.016
67 572 Villacis, Diego ECU Luis Felipe Davila ECU 7 1:00.934 5 + 1.732 + 0.090
68 524 Ossama, Shady EGY Mohamed Saad EGY 6 1:01.105 6 + 1.903 + 0.171
69 555 Montemayor, Mauricio MEX Montemayor Mauricio MEX 7 1:01.837 5 + 2.635 + 0.732
70 556 Kim, Tae Eun KOR TRK Promotion KOR 7 1:02.521 7 + 3.319 + 0.684
71 561 Kim, Dongho KOR TRK Promotion KOR 6 1:02.572 6 + 3.370 + 0.051


paddock